sensor_id;sensor_type;location;lat;lon;timestamp;P1;durP1;ratioP1;P2;durP2;ratioP2
50363;SDS011;36272;59.400;17.982;2023-09-12T00:01:52;35.05;;;18.80;;
50363;SDS011;36272;59.400;17.982;2023-09-12T00:06:54;34.97;;;19.65;;
50363;SDS011;36272;59.400;17.982;2023-09-12T00:12:00;33.67;;;18.73;;
50363;SDS011;36272;59.400;17.982;2023-09-12T00:17:02;32.90;;;18.80;;
50363;SDS011;36272;59.400;17.982;2023-09-12T00:22:09;47.80;;;20.50;;
50363;SDS011;36272;59.400;17.982;2023-09-12T00:27:10;33.67;;;19.83;;
50363;SDS011;36272;59.400;17.982;2023-09-12T00:37:38;33.33;;;19.20;;
50363;SDS011;36272;59.400;17.982;2023-09-12T00:42:40;35.63;;;18.38;;
50363;SDS011;36272;59.400;17.982;2023-09-12T00:47:42;37.67;;;19.88;;
50363;SDS011;36272;59.400;17.982;2023-09-12T00:52:44;35.65;;;19.80;;
50363;SDS011;36272;59.400;17.982;2023-09-12T00:57:46;37.70;;;21.30;;
50363;SDS011;36272;59.400;17.982;2023-09-12T01:02:49;41.13;;;20.73;;
50363;SDS011;36272;59.400;17.982;2023-09-12T01:07:53;41.30;;;20.88;;
50363;SDS011;36272;59.400;17.982;2023-09-12T01:12:55;41.10;;;19.70;;
50363;SDS011;36272;59.400;17.982;2023-09-12T01:17:57;35.72;;;19.80;;
50363;SDS011;36272;59.400;17.982;2023-09-12T01:28:23;37.63;;;19.45;;
50363;SDS011;36272;59.400;17.982;2023-09-12T01:33:41;36.50;;;18.73;;
50363;SDS011;36272;59.400;17.982;2023-09-12T01:38:43;37.60;;;19.58;;
50363;SDS011;36272;59.400;17.982;2023-09-12T01:43:49;34.83;;;18.50;;
50363;SDS011;36272;59.400;17.982;2023-09-12T01:48:53;38.28;;;19.17;;
50363;SDS011;36272;59.400;17.982;2023-09-12T01:54:01;44.67;;;19.92;;
50363;SDS011;36272;59.400;17.982;2023-09-12T01:59:05;37.25;;;17.98;;
50363;SDS011;36272;59.400;17.982;2023-09-12T02:04:12;35.42;;;18.50;;
50363;SDS011;36272;59.400;17.982;2023-09-12T02:09:13;43.40;;;19.33;;
50363;SDS011;36272;59.400;17.982;2023-09-12T02:14:15;40.40;;;18.92;;
50363;SDS011;36272;59.400;17.982;2023-09-12T02:19:17;39.63;;;17.48;;
50363;SDS011;36272;59.400;17.982;2023-09-12T02:24:18;34.45;;;18.58;;
50363;SDS011;36272;59.400;17.982;2023-09-12T02:29:22;39.53;;;18.25;;
50363;SDS011;36272;59.400;17.982;2023-09-12T02:34:29;34.45;;;17.77;;
50363;SDS011;36272;59.400;17.982;2023-09-12T02:39:30;32.63;;;17.02;;
50363;SDS011;36272;59.400;17.982;2023-09-12T02:44:37;40.58;;;17.88;;
50363;SDS011;36272;59.400;17.982;2023-09-12T02:49:39;30.10;;;17.02;;
50363;SDS011;36272;59.400;17.982;2023-09-12T02:54:40;35.50;;;18.08;;
50363;SDS011;36272;59.400;17.982;2023-09-12T02:59:42;45.83;;;19.33;;
50363;SDS011;36272;59.400;17.982;2023-09-12T03:04:43;33.75;;;18.15;;
50363;SDS011;36272;59.400;17.982;2023-09-12T03:09:47;46.25;;;18.40;;
50363;SDS011;36272;59.400;17.982;2023-09-12T03:20:12;47.30;;;18.30;;
50363;SDS011;36272;59.400;17.982;2023-09-12T03:25:14;43.95;;;19.60;;
50363;SDS011;36272;59.400;17.982;2023-09-12T03:30:15;42.70;;;18.42;;
50363;SDS011;36272;59.400;17.982;2023-09-12T03:35:22;38.25;;;17.85;;
50363;SDS011;36272;59.400;17.982;2023-09-12T03:40:23;36.55;;;18.38;;
50363;SDS011;36272;59.400;17.982;2023-09-12T03:45:35;35.85;;;18.17;;
50363;SDS011;36272;59.400;17.982;2023-09-12T03:50:37;27.30;;;16.55;;
50363;SDS011;36272;59.400;17.982;2023-09-12T03:55:39;42.45;;;17.25;;
50363;SDS011;36272;59.400;17.982;2023-09-12T04:00:46;45.67;;;17.17;;
50363;SDS011;36272;59.400;17.982;2023-09-12T04:05:48;40.25;;;17.52;;
50363;SDS011;36272;59.400;17.982;2023-09-12T04:10:51;32.15;;;16.98;;
50363;SDS011;36272;59.400;17.982;2023-09-12T04:15:52;44.60;;;19.73;;
50363;SDS011;36272;59.400;17.982;2023-09-12T04:21:04;29.70;;;17.65;;
50363;SDS011;36272;59.400;17.982;2023-09-12T04:26:06;42.40;;;19.58;;
50363;SDS011;36272;59.400;17.982;2023-09-12T04:31:07;47.60;;;20.63;;
50363;SDS011;36272;59.400;17.982;2023-09-12T04:36:09;44.85;;;20.65;;
50363;SDS011;36272;59.400;17.982;2023-09-12T04:41:19;56.53;;;20.33;;
50363;SDS011;36272;59.400;17.982;2023-09-12T04:46:20;39.90;;;20.92;;
50363;SDS011;36272;59.400;17.982;2023-09-12T04:51:22;39.00;;;20.35;;
50363;SDS011;36272;59.400;17.982;2023-09-12T04:56:43;49.22;;;20.35;;
50363;SDS011;36272;59.400;17.982;2023-09-12T05:01:50;36.28;;;20.08;;
50363;SDS011;36272;59.400;17.982;2023-09-12T05:06:52;36.63;;;19.67;;
50363;SDS011;36272;59.400;17.982;2023-09-12T05:11:54;34.22;;;18.30;;
50363;SDS011;36272;59.400;17.982;2023-09-12T05:16:56;31.90;;;17.85;;
50363;SDS011;36272;59.400;17.982;2023-09-12T05:22:07;27.50;;;17.67;;
50363;SDS011;36272;59.400;17.982;2023-09-12T05:27:08;38.08;;;16.98;;
50363;SDS011;36272;59.400;17.982;2023-09-12T05:32:10;31.20;;;16.33;;
50363;SDS011;36272;59.400;17.982;2023-09-12T05:37:56;27.80;;;15.20;;
50363;SDS011;36272;59.400;17.982;2023-09-12T05:43:12;22.30;;;14.05;;
50363;SDS011;36272;59.400;17.982;2023-09-12T05:48:17;22.63;;;13.98;;
50363;SDS011;36272;59.400;17.982;2023-09-12T05:53:19;19.95;;;13.43;;
50363;SDS011;36272;59.400;17.982;2023-09-12T05:58:20;19.58;;;14.32;;
50363;SDS011;36272;59.400;17.982;2023-09-12T06:03:27;18.40;;;12.73;;
50363;SDS011;36272;59.400;17.982;2023-09-12T06:08:28;23.65;;;13.02;;
50363;SDS011;36272;59.400;17.982;2023-09-12T06:13:35;16.75;;;12.00;;
50363;SDS011;36272;59.400;17.982;2023-09-12T06:18:38;13.65;;;10.57;;
50363;SDS011;36272;59.400;17.982;2023-09-12T06:23:40;13.57;;;9.93;;
50363;SDS011;36272;59.400;17.982;2023-09-12T06:28:41;13.82;;;10.52;;
50363;SDS011;36272;59.400;17.982;2023-09-12T06:33:48;15.60;;;9.75;;
50363;SDS011;36272;59.400;17.982;2023-09-12T06:38:50;12.10;;;9.00;;
50363;SDS011;36272;59.400;17.982;2023-09-12T06:43:52;12.45;;;9.38;;
50363;SDS011;36272;59.400;17.982;2023-09-12T06:48:59;13.70;;;9.73;;
50363;SDS011;36272;59.400;17.982;2023-09-12T06:54:01;11.63;;;9.50;;
50363;SDS011;36272;59.400;17.982;2023-09-12T06:59:03;18.90;;;12.02;;
50363;SDS011;36272;59.400;17.982;2023-09-12T07:04:05;16.50;;;11.48;;
50363;SDS011;36272;59.400;17.982;2023-09-12T07:09:07;15.70;;;11.13;;
50363;SDS011;36272;59.400;17.982;2023-09-12T07:14:09;13.68;;;10.77;;
50363;SDS011;36272;59.400;17.982;2023-09-12T07:19:11;13.70;;;10.35;;
50363;SDS011;36272;59.400;17.982;2023-09-12T07:24:13;14.25;;;9.45;;
50363;SDS011;36272;59.400;17.982;2023-09-12T07:29:14;14.60;;;9.02;;
50363;SDS011;36272;59.400;17.982;2023-09-12T07:34:18;9.85;;;8.02;;
50363;SDS011;36272;59.400;17.982;2023-09-12T07:39:21;13.15;;;8.63;;
50363;SDS011;36272;59.400;17.982;2023-09-12T07:44:23;14.98;;;8.35;;
50363;SDS011;36272;59.400;17.982;2023-09-12T07:49:24;10.00;;;8.57;;
50363;SDS011;36272;59.400;17.982;2023-09-12T07:54:37;13.40;;;8.32;;
50363;SDS011;36272;59.400;17.982;2023-09-12T07:59:39;11.20;;;7.97;;
50363;SDS011;36272;59.400;17.982;2023-09-12T08:04:40;9.48;;;7.88;;
50363;SDS011;36272;59.400;17.982;2023-09-12T08:09:49;11.45;;;7.90;;
50363;SDS011;36272;59.400;17.982;2023-09-12T08:14:53;27.35;;;8.65;;
50363;SDS011;36272;59.400;17.982;2023-09-12T08:19:55;11.32;;;8.30;;
50363;SDS011;36272;59.400;17.982;2023-09-12T08:24:57;12.30;;;8.63;;
50363;SDS011;36272;59.400;17.982;2023-09-12T08:29:58;16.92;;;7.53;;
50363;SDS011;36272;59.400;17.982;2023-09-12T08:35:00;13.63;;;8.27;;
50363;SDS011;36272;59.400;17.982;2023-09-12T08:40:02;10.27;;;7.80;;
50363;SDS011;36272;59.400;17.982;2023-09-12T08:45:12;14.98;;;7.53;;
50363;SDS011;36272;59.400;17.982;2023-09-12T08:50:18;13.23;;;8.48;;
50363;SDS011;36272;59.400;17.982;2023-09-12T08:55:22;14.32;;;8.50;;
50363;SDS011;36272;59.400;17.982;2023-09-12T09:00:23;11.93;;;9.38;;
50363;SDS011;36272;59.400;17.982;2023-09-12T09:05:26;12.20;;;8.60;;
50363;SDS011;36272;59.400;17.982;2023-09-12T09:10:28;14.43;;;9.30;;
50363;SDS011;36272;59.400;17.982;2023-09-12T09:15:33;18.75;;;9.30;;
50363;SDS011;36272;59.400;17.982;2023-09-12T09:20:35;15.73;;;9.68;;
50363;SDS011;36272;59.400;17.982;2023-09-12T09:25:40;10.35;;;9.20;;
50363;SDS011;36272;59.400;17.982;2023-09-12T09:30:47;11.10;;;9.15;;
50363;SDS011;36272;59.400;17.982;2023-09-12T09:35:54;11.30;;;8.90;;
50363;SDS011;36272;59.400;17.982;2023-09-12T09:41:08;10.35;;;8.15;;
50363;SDS011;36272;59.400;17.982;2023-09-12T09:46:14;14.13;;;8.65;;
50363;SDS011;36272;59.400;17.982;2023-09-12T09:51:17;10.73;;;7.80;;
50363;SDS011;36272;59.400;17.982;2023-09-12T09:56:19;11.93;;;8.18;;
50363;SDS011;36272;59.400;17.982;2023-09-12T10:01:27;10.93;;;8.20;;
50363;SDS011;36272;59.400;17.982;2023-09-12T10:06:30;12.02;;;8.25;;
50363;SDS011;36272;59.400;17.982;2023-09-12T10:17:13;12.13;;;7.03;;
50363;SDS011;36272;59.400;17.982;2023-09-12T10:22:21;10.33;;;6.57;;
50363;SDS011;36272;59.400;17.982;2023-09-12T10:27:25;12.48;;;7.60;;
50363;SDS011;36272;59.400;17.982;2023-09-12T10:32:27;8.93;;;6.63;;
50363;SDS011;36272;59.400;17.982;2023-09-12T10:37:31;10.60;;;7.28;;
50363;SDS011;36272;59.400;17.982;2023-09-12T10:42:36;9.23;;;6.63;;
50363;SDS011;36272;59.400;17.982;2023-09-12T10:47:38;9.23;;;6.47;;
50363;SDS011;36272;59.400;17.982;2023-09-12T10:52:40;7.97;;;6.43;;
50363;SDS011;36272;59.400;17.982;2023-09-12T11:08:33;11.43;;;7.97;;
50363;SDS011;36272;59.400;17.982;2023-09-12T11:13:38;10.88;;;7.00;;
50363;SDS011;36272;59.400;17.982;2023-09-12T11:24:25;12.40;;;7.40;;
50363;SDS011;36272;59.400;17.982;2023-09-12T11:34:37;10.63;;;8.00;;
50363;SDS011;36272;59.400;17.982;2023-09-12T11:39:41;8.93;;;6.75;;
50363;SDS011;36272;59.400;17.982;2023-09-12T11:44:43;11.45;;;8.45;;
50363;SDS011;36272;59.400;17.982;2023-09-12T11:49:46;11.32;;;8.93;;
50363;SDS011;36272;59.400;17.982;2023-09-12T11:59:52;13.07;;;8.98;;
50363;SDS011;36272;59.400;17.982;2023-09-12T12:04:53;12.60;;;9.70;;
50363;SDS011;36272;59.400;17.982;2023-09-12T12:09:55;12.48;;;9.30;;
50363;SDS011;36272;59.400;17.982;2023-09-12T12:14:57;12.55;;;10.32;;
50363;SDS011;36272;59.400;17.982;2023-09-12T12:19:59;13.90;;;9.65;;
50363;SDS011;36272;59.400;17.982;2023-09-12T12:25:10;13.82;;;10.43;;
50363;SDS011;36272;59.400;17.982;2023-09-12T12:30:13;14.50;;;10.23;;
50363;SDS011;36272;59.400;17.982;2023-09-12T12:35:19;15.18;;;10.05;;
50363;SDS011;36272;59.400;17.982;2023-09-12T12:40:22;18.48;;;11.00;;
50363;SDS011;36272;59.400;17.982;2023-09-12T12:45:23;18.98;;;9.93;;
50363;SDS011;36272;59.400;17.982;2023-09-12T12:50:26;13.93;;;10.10;;
50363;SDS011;36272;59.400;17.982;2023-09-12T12:55:28;13.63;;;10.15;;
50363;SDS011;36272;59.400;17.982;2023-09-12T13:00:29;14.18;;;10.40;;
50363;SDS011;36272;59.400;17.982;2023-09-12T13:05:31;17.75;;;10.88;;
50363;SDS011;36272;59.400;17.982;2023-09-12T13:10:33;18.80;;;10.43;;
50363;SDS011;36272;59.400;17.982;2023-09-12T13:15:35;16.52;;;10.90;;
50363;SDS011;36272;59.400;17.982;2023-09-12T13:20:36;16.27;;;11.40;;
50363;SDS011;36272;59.400;17.982;2023-09-12T13:25:38;18.13;;;11.00;;
50363;SDS011;36272;59.400;17.982;2023-09-12T13:30:40;18.85;;;12.45;;
50363;SDS011;36272;59.400;17.982;2023-09-12T13:35:41;21.75;;;11.73;;
50363;SDS011;36272;59.400;17.982;2023-09-12T13:40:43;19.15;;;12.73;;
50363;SDS011;36272;59.400;17.982;2023-09-12T13:45:46;16.77;;;12.48;;
50363;SDS011;36272;59.400;17.982;2023-09-12T13:50:47;20.27;;;12.85;;
50363;SDS011;36272;59.400;17.982;2023-09-12T13:55:49;18.00;;;12.15;;
50363;SDS011;36272;59.400;17.982;2023-09-12T14:00:50;16.27;;;12.85;;
50363;SDS011;36272;59.400;17.982;2023-09-12T14:05:52;17.90;;;12.43;;
50363;SDS011;36272;59.400;17.982;2023-09-12T14:10:54;20.83;;;12.38;;
50363;SDS011;36272;59.400;17.982;2023-09-12T14:15:55;20.55;;;13.25;;
50363;SDS011;36272;59.400;17.982;2023-09-12T14:20:57;21.05;;;13.20;;
50363;SDS011;36272;59.400;17.982;2023-09-12T14:25:59;18.00;;;12.57;;
50363;SDS011;36272;59.400;17.982;2023-09-12T14:31:00;18.95;;;12.75;;
50363;SDS011;36272;59.400;17.982;2023-09-12T14:36:05;17.27;;;12.83;;
50363;SDS011;36272;59.400;17.982;2023-09-12T14:41:11;18.08;;;12.55;;
50363;SDS011;36272;59.400;17.982;2023-09-12T14:46:14;19.88;;;12.57;;
50363;SDS011;36272;59.400;17.982;2023-09-12T14:51:15;22.23;;;12.88;;
50363;SDS011;36272;59.400;17.982;2023-09-12T14:56:17;18.75;;;11.95;;
50363;SDS011;36272;59.400;17.982;2023-09-12T15:01:19;17.85;;;12.45;;
50363;SDS011;36272;59.400;17.982;2023-09-12T15:06:20;20.50;;;12.75;;
50363;SDS011;36272;59.400;17.982;2023-09-12T15:11:22;32.45;;;12.60;;
50363;SDS011;36272;59.400;17.982;2023-09-12T15:16:24;19.70;;;12.32;;
50363;SDS011;36272;59.400;17.982;2023-09-12T15:21:27;17.58;;;12.23;;
50363;SDS011;36272;59.400;17.982;2023-09-12T15:26:28;17.65;;;12.18;;
50363;SDS011;36272;59.400;17.982;2023-09-12T15:31:30;18.80;;;13.00;;
50363;SDS011;36272;59.400;17.982;2023-09-12T15:36:36;16.40;;;12.80;;
50363;SDS011;36272;59.400;17.982;2023-09-12T15:41:42;21.30;;;12.77;;
50363;SDS011;36272;59.400;17.982;2023-09-12T15:46:44;16.10;;;11.80;;
50363;SDS011;36272;59.400;17.982;2023-09-12T15:51:45;15.07;;;11.75;;
50363;SDS011;36272;59.400;17.982;2023-09-12T15:56:47;31.98;;;12.38;;
50363;SDS011;36272;59.400;17.982;2023-09-12T16:01:49;18.73;;;11.82;;
50363;SDS011;36272;59.400;17.982;2023-09-12T16:13:17;13.80;;;9.68;;
50363;SDS011;36272;59.400;17.982;2023-09-12T16:18:19;19.55;;;10.90;;
50363;SDS011;36272;59.400;17.982;2023-09-12T16:23:21;13.70;;;9.43;;
50363;SDS011;36272;59.400;17.982;2023-09-12T16:28:26;11.68;;;8.43;;
50363;SDS011;36272;59.400;17.982;2023-09-12T16:33:36;14.25;;;8.60;;
50363;SDS011;36272;59.400;17.982;2023-09-12T16:38:37;15.15;;;8.27;;
50363;SDS011;36272;59.400;17.982;2023-09-12T16:43:44;13.95;;;8.75;;
50363;SDS011;36272;59.400;17.982;2023-09-12T16:48:46;12.77;;;7.97;;
50363;SDS011;36272;59.400;17.982;2023-09-12T16:59:27;15.68;;;8.68;;
50363;SDS011;36272;59.400;17.982;2023-09-12T17:04:34;15.48;;;8.18;;
50363;SDS011;36272;59.400;17.982;2023-09-12T17:09:36;12.45;;;7.82;;
50363;SDS011;36272;59.400;17.982;2023-09-12T17:14:38;13.00;;;8.43;;
50363;SDS011;36272;59.400;17.982;2023-09-12T17:19:41;13.18;;;8.43;;
50363;SDS011;36272;59.400;17.982;2023-09-12T17:24:44;13.37;;;8.17;;
50363;SDS011;36272;59.400;17.982;2023-09-12T17:29:47;12.52;;;8.90;;
50363;SDS011;36272;59.400;17.982;2023-09-12T17:34:49;14.50;;;9.10;;
50363;SDS011;36272;59.400;17.982;2023-09-12T17:39:53;14.30;;;9.13;;
50363;SDS011;36272;59.400;17.982;2023-09-12T17:45:01;13.27;;;9.20;;
50363;SDS011;36272;59.400;17.982;2023-09-12T17:50:02;15.73;;;8.88;;
50363;SDS011;36272;59.400;17.982;2023-09-12T17:55:12;16.05;;;10.57;;
50363;SDS011;36272;59.400;17.982;2023-09-12T18:00:14;17.88;;;10.95;;
50363;SDS011;36272;59.400;17.982;2023-09-12T18:05:16;17.83;;;11.73;;
50363;SDS011;36272;59.400;17.982;2023-09-12T18:10:17;21.42;;;12.57;;
50363;SDS011;36272;59.400;17.982;2023-09-12T18:15:19;19.58;;;13.30;;
50363;SDS011;36272;59.400;17.982;2023-09-12T18:20:21;21.80;;;13.30;;
50363;SDS011;36272;59.400;17.982;2023-09-12T18:25:28;19.23;;;12.77;;
50363;SDS011;36272;59.400;17.982;2023-09-12T18:30:30;22.92;;;13.85;;
50363;SDS011;36272;59.400;17.982;2023-09-12T18:35:36;24.08;;;14.82;;
50363;SDS011;36272;59.400;17.982;2023-09-12T18:40:38;22.13;;;14.75;;
50363;SDS011;36272;59.400;17.982;2023-09-12T18:45:40;27.02;;;15.88;;
50363;SDS011;36272;59.400;17.982;2023-09-12T18:50:45;21.17;;;14.75;;
50363;SDS011;36272;59.400;17.982;2023-09-12T18:55:50;21.52;;;15.73;;
50363;SDS011;36272;59.400;17.982;2023-09-12T19:01:10;21.35;;;15.55;;
50363;SDS011;36272;59.400;17.982;2023-09-12T19:17:15;20.30;;;14.70;;
50363;SDS011;36272;59.400;17.982;2023-09-12T19:22:30;25.77;;;16.33;;
50363;SDS011;36272;59.400;17.982;2023-09-12T19:27:31;21.48;;;15.43;;
50363;SDS011;36272;59.400;17.982;2023-09-12T19:38:24;26.77;;;16.70;;
50363;SDS011;36272;59.400;17.982;2023-09-12T19:43:29;21.92;;;15.82;;
50363;SDS011;36272;59.400;17.982;2023-09-12T19:48:37;21.42;;;16.48;;
50363;SDS011;36272;59.400;17.982;2023-09-12T19:53:48;22.83;;;15.27;;
50363;SDS011;36272;59.400;17.982;2023-09-12T20:10:52;19.27;;;14.52;;
50363;SDS011;36272;59.400;17.982;2023-09-12T20:16:19;22.30;;;14.93;;
50363;SDS011;36272;59.400;17.982;2023-09-12T20:27:55;19.00;;;14.40;;
50363;SDS011;36272;59.400;17.982;2023-09-12T20:33:43;22.42;;;14.75;;
50363;SDS011;36272;59.400;17.982;2023-09-12T20:39:46;22.05;;;16.10;;
50363;SDS011;36272;59.400;17.982;2023-09-12T20:44:49;24.65;;;16.48;;
50363;SDS011;36272;59.400;17.982;2023-09-12T20:50:00;24.13;;;16.13;;
50363;SDS011;36272;59.400;17.982;2023-09-12T20:55:04;29.42;;;16.10;;
50363;SDS011;36272;59.400;17.982;2023-09-12T21:00:07;27.55;;;16.98;;
50363;SDS011;36272;59.400;17.982;2023-09-12T21:05:19;25.45;;;16.55;;
50363;SDS011;36272;59.400;17.982;2023-09-12T21:10:20;27.13;;;16.85;;
50363;SDS011;36272;59.400;17.982;2023-09-12T21:15:22;23.83;;;16.25;;
50363;SDS011;36272;59.400;17.982;2023-09-12T21:20:27;27.27;;;16.98;;
50363;SDS011;36272;59.400;17.982;2023-09-12T21:25:28;23.23;;;16.08;;
50363;SDS011;36272;59.400;17.982;2023-09-12T21:30:30;24.33;;;16.42;;
50363;SDS011;36272;59.400;17.982;2023-09-12T21:35:31;22.83;;;15.65;;
50363;SDS011;36272;59.400;17.982;2023-09-12T21:40:33;23.45;;;15.95;;
50363;SDS011;36272;59.400;17.982;2023-09-12T21:45:35;31.58;;;16.50;;
50363;SDS011;36272;59.400;17.982;2023-09-12T21:50:36;25.98;;;16.05;;
50363;SDS011;36272;59.400;17.982;2023-09-12T21:55:38;24.48;;;17.35;;
50363;SDS011;36272;59.400;17.982;2023-09-12T22:00:40;27.10;;;16.88;;
50363;SDS011;36272;59.400;17.982;2023-09-12T22:05:43;23.58;;;15.73;;
50363;SDS011;36272;59.400;17.982;2023-09-12T22:10:50;23.50;;;14.88;;
50363;SDS011;36272;59.400;17.982;2023-09-12T22:15:51;22.83;;;14.68;;
50363;SDS011;36272;59.400;17.982;2023-09-12T22:20:53;20.25;;;13.48;;
50363;SDS011;36272;59.400;17.982;2023-09-12T22:25:54;22.02;;;13.77;;
50363;SDS011;36272;59.400;17.982;2023-09-12T22:30:58;19.52;;;13.98;;
50363;SDS011;36272;59.400;17.982;2023-09-12T22:35:59;18.88;;;12.55;;
50363;SDS011;36272;59.400;17.982;2023-09-12T22:41:01;18.10;;;11.25;;
50363;SDS011;36272;59.400;17.982;2023-09-12T22:46:04;16.00;;;9.70;;
50363;SDS011;36272;59.400;17.982;2023-09-12T22:51:05;15.77;;;9.63;;
50363;SDS011;36272;59.400;17.982;2023-09-12T22:56:07;14.23;;;8.82;;
50363;SDS011;36272;59.400;17.982;2023-09-12T23:01:09;11.43;;;8.18;;
50363;SDS011;36272;59.400;17.982;2023-09-12T23:06:10;12.80;;;7.88;;
50363;SDS011;36272;59.400;17.982;2023-09-12T23:11:12;10.90;;;6.90;;
50363;SDS011;36272;59.400;17.982;2023-09-12T23:16:14;11.35;;;7.00;;
50363;SDS011;36272;59.400;17.982;2023-09-12T23:21:15;12.32;;;6.80;;
50363;SDS011;36272;59.400;17.982;2023-09-12T23:26:17;11.75;;;6.97;;
50363;SDS011;36272;59.400;17.982;2023-09-12T23:31:20;9.65;;;5.50;;
50363;SDS011;36272;59.400;17.982;2023-09-12T23:36:21;8.63;;;5.38;;
50363;SDS011;36272;59.400;17.982;2023-09-12T23:41:28;9.73;;;5.60;;
50363;SDS011;36272;59.400;17.982;2023-09-12T23:46:29;9.68;;;5.63;;
50363;SDS011;36272;59.400;17.982;2023-09-12T23:51:31;8.13;;;5.20;;
50363;SDS011;36272;59.400;17.982;2023-09-12T23:56:33;12.00;;;5.03;;
